Terminal Aerodrome Forecast
Issued by NWS Wilmington, OH

Current Version | Previous Version | Text Only | Print | Product List | Glossary Off
Versions: 1 2 3 4 5 6 7 8 9 10 11 12 13 14 15 16 17 18 19 20 21 22 23

553
FTUS41 KILN 232337
TAFDAY
TAF
KDAY 232337Z 2400/2424 17006KT P6SM SCT050
     FM240200 16005KT P6SM BKN250
     FM241100 17005KT P6SM BKN070
     FM241400 19010KT P6SM SCT050 BKN100
     FM242100 20012G18KT P6SM VCTS BKN050CB=

USA.gov is the U.S. government's official web portal to all federal, state and local government web resources and services.